createdAt,value
2023-04-03T00:00:44.133Z,99.99
2023-04-03T00:04:45.740Z,99.99
2023-04-03T00:08:47.315Z,99.99
2023-04-03T00:12:48.867Z,99.99
2023-04-03T00:16:50.539Z,99.99
2023-04-03T00:20:52.296Z,99.99
2023-04-03T00:24:53.862Z,99.99
2023-04-03T00:28:55.459Z,99.99
2023-04-03T00:32:57.122Z,99.99
2023-04-03T00:36:58.759Z,99.99
2023-04-03T00:41:00.484Z,99.99
2023-04-03T00:45:02.013Z,99.99
2023-04-03T00:49:03.592Z,99.99
2023-04-03T00:53:07.192Z,99.99
2023-04-03T00:57:10.047Z,99.99
2023-04-03T01:01:16.308Z,99.99
2023-04-03T01:05:20.250Z,99.99
2023-04-03T01:09:22.059Z,99.99
2023-04-03T01:13:31.337Z,99.99
2023-04-03T01:17:39.552Z,99.99
2023-04-03T01:21:53.468Z,99.99
2023-04-03T01:25:57.161Z,99.99
2023-04-03T01:29:59.228Z,99.99
2023-04-03T01:34:00.846Z,99.99
2023-04-03T01:38:03.768Z,99.99
2023-04-03T01:42:05.397Z,99.99
2023-04-03T01:46:11.684Z,99.99
2023-04-03T01:50:13.526Z,99.99
2023-04-03T01:54:15.424Z,99.99
2023-04-03T01:58:17.602Z,99.99
2023-04-03T02:02:21.178Z,99.99
2023-04-03T02:06:22.797Z,99.99
2023-04-03T02:10:24.419Z,99.99
2023-04-03T02:14:28.333Z,99.99
2023-04-03T02:18:29.893Z,99.99
2023-04-03T02:22:31.658Z,99.99
2023-04-03T02:26:33.281Z,99.99
2023-04-03T02:30:35.041Z,99.99
2023-04-03T02:34:37.029Z,99.99
2023-04-03T02:38:39.480Z,99.99
2023-04-03T02:42:41.169Z,99.99
2023-04-03T02:46:42.894Z,99.99
2023-04-03T02:50:44.618Z,99.99
2023-04-03T02:54:46.160Z,99.99
2023-04-03T02:58:47.942Z,99.99
2023-04-03T03:02:51.506Z,99.99
2023-04-03T03:06:53.402Z,99.99
2023-04-03T03:10:54.921Z,99.99
2023-04-03T03:14:56.563Z,99.99
2023-04-03T03:18:59.082Z,99.99
2023-04-03T03:23:01.076Z,99.99
2023-04-03T03:27:02.604Z,99.99
2023-04-03T03:31:04.750Z,99.99
2023-04-03T03:35:07.752Z,99.99
2023-04-03T03:39:09.289Z,99.99
2023-04-03T03:43:10.995Z,99.99
2023-04-03T03:47:12.816Z,99.99
2023-04-03T03:51:14.670Z,99.99
2023-04-03T03:55:16.332Z,99.99
2023-04-03T03:59:18.347Z,99.99
2023-04-03T04:03:22.036Z,99.99
2023-04-03T04:07:24.916Z,99.99
2023-04-03T04:11:28.640Z,99.99
2023-04-03T04:15:32.070Z,99.99
2023-04-03T04:19:34.247Z,99.99
2023-04-03T04:23:36.167Z,99.99
2023-04-03T04:27:38.947Z,99.99
2023-04-03T04:31:41.184Z,99.99
2023-04-03T04:35:44.636Z,99.99
2023-04-03T04:39:47.204Z,99.99
2023-04-03T04:43:49.924Z,99.99
2023-04-03T04:47:53.704Z,99.99
2023-04-03T04:51:55.878Z,99.99
2023-04-03T04:56:03.199Z,99.99
2023-04-03T05:00:08.447Z,99.99
2023-04-03T05:04:10.630Z,99.99
2023-04-03T05:08:13.666Z,99.99
2023-04-03T05:12:17.907Z,99.99
2023-04-03T05:16:27.225Z,99.99
2023-04-03T05:20:30.212Z,99.99
2023-04-03T05:24:32.892Z,99.99
2023-04-03T05:28:35.441Z,99.99
2023-04-03T05:32:37.401Z,99.99
2023-04-03T05:37:01.514Z,99.99
2023-04-03T05:41:03.797Z,99.99
2023-04-03T05:45:05.871Z,99.99
2023-04-03T05:49:07.522Z,99.99
2023-04-03T05:53:21.718Z,99.99
2023-04-03T05:57:23.436Z,99.99
2023-04-03T06:01:25.811Z,99.99
2023-04-03T06:05:27.811Z,99.99
2023-04-03T06:09:30.252Z,99.99
2023-04-03T06:13:32.411Z,99.99
2023-04-03T06:17:34.027Z,99.99
2023-04-03T06:21:36.751Z,99.99
2023-04-03T06:25:38.420Z,99.99
2023-04-03T06:29:40.060Z,99.99
2023-04-03T06:33:41.714Z,99.99
2023-04-03T06:37:43.325Z,99.99
2023-04-03T06:41:45.122Z,99.99
2023-04-03T06:45:46.873Z,99.99
2023-04-03T06:49:48.737Z,99.99
2023-04-03T06:53:52.469Z,99.99
2023-04-03T06:57:53.973Z,99.99
2023-04-03T07:01:55.602Z,99.99
2023-04-03T07:05:57.488Z,99.99
2023-04-03T07:09:59.183Z,99.99
2023-04-03T07:14:00.829Z,99.99
2023-04-03T07:18:02.750Z,99.99
2023-04-03T07:22:04.352Z,99.99
2023-04-03T07:26:07.499Z,99.99
2023-04-03T07:30:10.201Z,99.99
2023-04-03T07:34:12.286Z,99.99
2023-04-03T07:38:14.238Z,99.99
2023-04-03T07:42:15.848Z,99.99
2023-04-03T07:46:18.384Z,99.99
2023-04-03T07:50:19.983Z,99.99
2023-04-03T07:54:21.577Z,99.99
2023-04-03T07:58:23.158Z,99.99
2023-04-03T08:02:24.888Z,99.99
2023-04-03T08:06:42.117Z,99.99
2023-04-03T08:10:52.870Z,99.99
2023-04-03T08:14:54.446Z,99.99
2023-04-03T08:18:56.249Z,99.99
2023-04-03T08:22:57.800Z,99.99
2023-04-03T08:26:59.544Z,99.99
2023-04-03T08:31:12.036Z,99.99
2023-04-03T08:35:13.745Z,99.99
2023-04-03T08:39:15.352Z,99.99
2023-04-03T08:43:49.464Z,99.99
2023-04-03T08:47:57.404Z,99.99
2023-04-03T08:52:01.945Z,99.99
2023-04-03T08:56:07.700Z,99.99
2023-04-03T09:00:15.034Z,99.99
2023-04-03T09:04:20.634Z,99.99
2023-04-03T09:08:37.850Z,99.99
2023-04-03T09:12:43.657Z,99.99
2023-04-03T09:16:58.722Z,99.99
2023-04-03T09:21:32.804Z,99.99
2023-04-03T09:25:38.271Z,99.99
2023-04-03T09:29:46.998Z,99.99
2023-04-03T09:33:55.656Z,99.99
2023-04-03T09:38:09.663Z,99.99
2023-04-03T09:42:23.508Z,99.99
2023-04-03T09:46:33.986Z,99.99
2023-04-03T09:50:37.780Z,99.99
2023-04-03T09:54:41.771Z,99.99
2023-04-03T09:58:50.891Z,99.99
2023-04-03T10:02:57.130Z,99.99
2023-04-03T10:06:58.821Z,99.99
2023-04-03T10:11:19.804Z,99.99
2023-04-03T10:15:21.719Z,99.99
2023-04-03T10:19:54.448Z,99.99
2023-04-03T10:24:11.606Z,99.99
2023-04-03T10:28:25.433Z,99.99
2023-04-03T10:32:58.057Z,99.99
2023-04-03T10:37:21.295Z,99.99
2023-04-03T10:41:47.325Z,99.99
2023-04-03T10:45:58.718Z,99.99
2023-04-03T10:50:23.948Z,99.99
2023-04-03T10:54:47.314Z,99.99
2023-04-03T10:58:58.746Z,99.99
2023-04-03T11:03:07.026Z,99.99
2023-04-03T11:07:19.249Z,99.99
2023-04-03T11:11:25.052Z,99.99
2023-04-03T11:15:29.657Z,99.99
2023-04-03T11:19:40.186Z,99.99
2023-04-03T11:23:49.707Z,99.99
2023-04-03T11:27:57.605Z,99.99
2023-04-03T11:32:33.688Z,99.99
2023-04-03T11:36:54.713Z,99.99
2023-04-03T11:40:58.567Z,99.99
2023-04-03T11:45:37.982Z,99.99
2023-04-03T11:50:00.395Z,99.99
2023-04-03T11:54:44.962Z,99.99
2023-04-03T11:59:11.732Z,99.99
2023-04-03T12:03:32.048Z,99.99
2023-04-03T12:07:34.028Z,99.99
2023-04-03T12:11:36.994Z,99.99
2023-04-03T12:15:38.775Z,99.99
2023-04-03T12:19:45.778Z,99.99
2023-04-03T12:24:04.835Z,99.99
2023-04-03T12:28:06.903Z,99.99
2023-04-03T12:32:38.758Z,99.99
2023-04-03T12:36:56.520Z,99.99
2023-04-03T12:41:12.724Z,99.99
2023-04-03T12:45:21.298Z,99.99
2023-04-03T12:49:39.132Z,99.99
2023-04-03T12:53:41.523Z,99.99
2023-04-03T12:57:43.104Z,99.99
2023-04-03T13:01:53.542Z,99.68
2023-04-03T13:06:04.297Z,99.22
2023-04-03T13:10:08.963Z,99.15
2023-04-03T13:14:20.964Z,96.92
2023-04-03T13:18:34.555Z,96.21
2023-04-03T13:22:44.629Z,96.12
2023-04-03T13:26:46.697Z,95.83
2023-04-03T13:31:02.865Z,94.57
2023-04-03T13:35:35.666Z,94.92
2023-04-03T13:39:39.544Z,95.89
2023-04-03T13:43:42.011Z,97.05
2023-04-03T13:47:46.456Z,95.58
2023-04-03T13:51:56.961Z,97.05
2023-04-03T13:56:17.231Z,97.75
2023-04-03T14:00:30.954Z,97.19
2023-04-03T14:04:58.850Z,96.84
2023-04-03T14:09:00.466Z,96.58
2023-04-03T14:13:02.295Z,95.47
2023-04-03T14:17:24.830Z,93.48
2023-04-03T14:21:27.178Z,94.40
2023-04-03T14:25:29.331Z,93.60
2023-04-03T14:29:31.189Z,92.13
2023-04-03T14:33:35.863Z,92.49
2023-04-03T14:37:37.803Z,91.68
2023-04-03T14:41:39.331Z,92.49
2023-04-03T14:45:40.951Z,93.70
2023-04-03T14:49:43.044Z,91.61
2023-04-03T14:53:45.927Z,91.65
2023-04-03T14:57:47.820Z,90.34
2023-04-03T15:01:49.944Z,89.18
2023-04-03T15:05:51.619Z,88.67
2023-04-03T15:09:53.418Z,88.36
2023-04-03T15:13:54.961Z,87.85
2023-04-03T15:17:58.820Z,88.46
2023-04-03T15:22:00.931Z,88.83
2023-04-03T15:26:03.175Z,87.30
2023-04-03T15:30:06.613Z,86.63
2023-04-03T15:34:08.198Z,86.29
2023-04-03T15:38:10.948Z,87.14
2023-04-03T15:42:13.531Z,87.24
2023-04-03T15:46:15.733Z,88.04
2023-04-03T15:50:17.513Z,87.73
2023-04-03T15:54:19.301Z,87.23
2023-04-03T15:58:20.928Z,86.57
2023-04-03T16:02:22.582Z,86.33
2023-04-03T16:06:25.845Z,86.33
2023-04-03T16:10:28.177Z,87.08
2023-04-03T16:14:31.261Z,88.18
2023-04-03T16:18:35.258Z,88.37
2023-04-03T16:22:37.830Z,88.88
2023-04-03T16:26:39.421Z,86.59
2023-04-03T16:30:42.609Z,87.82
2023-04-03T16:34:45.013Z,86.39
2023-04-03T16:38:46.617Z,86.22
2023-04-03T16:42:48.317Z,87.45
2023-04-03T16:46:49.892Z,87.76
2023-04-03T16:50:54.511Z,87.24
2023-04-03T16:54:56.661Z,87.59
2023-04-03T16:58:58.489Z,88.04
2023-04-03T17:03:00.400Z,88.53
2023-04-03T17:07:06.842Z,88.53
2023-04-03T17:11:08.430Z,89.74
2023-04-03T17:15:10.741Z,90.82
2023-04-03T17:19:12.799Z,91.78
2023-04-03T17:23:14.419Z,92.65
2023-04-03T17:27:16.067Z,91.63
2023-04-03T17:31:17.681Z,91.77
2023-04-03T17:35:19.248Z,92.02
2023-04-03T17:39:20.842Z,92.98
2023-04-03T17:43:22.443Z,94.05
2023-04-03T17:47:25.916Z,95.07
2023-04-03T17:51:27.518Z,94.81
2023-04-03T17:55:29.160Z,95.57
2023-04-03T17:59:30.860Z,96.50
2023-04-03T18:03:32.736Z,97.06
2023-04-03T18:07:34.362Z,97.47
2023-04-03T18:11:36.264Z,97.67
2023-04-03T18:15:43.774Z,98.03
2023-04-03T18:19:45.416Z,98.65
2023-04-03T18:23:50.065Z,98.85
2023-04-03T18:27:51.725Z,99.72
2023-04-03T18:31:56.332Z,99.99
2023-04-03T18:35:58.003Z,99.99
2023-04-03T18:39:59.696Z,99.99
2023-04-03T18:44:04.096Z,99.99
2023-04-03T18:48:05.917Z,99.99
2023-04-03T18:52:07.615Z,99.99
2023-04-03T18:56:09.302Z,99.99
2023-04-03T19:00:11.475Z,99.99
2023-04-03T19:04:13.750Z,99.99
2023-04-03T19:08:15.522Z,99.99
2023-04-03T19:12:17.167Z,99.99
2023-04-03T19:16:18.798Z,99.99
2023-04-03T19:20:20.883Z,99.99
2023-04-03T19:24:22.479Z,99.99
2023-04-03T19:28:24.036Z,99.99
2023-04-03T19:32:26.090Z,99.99
2023-04-03T19:36:27.744Z,99.99
2023-04-03T19:40:29.646Z,99.99
2023-04-03T19:44:33.820Z,99.99
2023-04-03T19:48:36.237Z,99.99
2023-04-03T19:52:37.867Z,99.99
2023-04-03T19:56:39.681Z,99.99
2023-04-03T20:00:41.689Z,99.99
2023-04-03T20:04:43.454Z,99.99
2023-04-03T20:08:45.100Z,99.99
2023-04-03T20:12:46.713Z,99.99
2023-04-03T20:16:48.450Z,99.99
2023-04-03T20:20:55.181Z,99.99
2023-04-03T20:24:58.788Z,99.99
2023-04-03T20:29:04.144Z,99.99
2023-04-03T20:33:06.267Z,99.99
2023-04-03T20:37:09.486Z,99.99
2023-04-03T20:41:11.004Z,99.99
2023-04-03T20:45:13.270Z,99.99
2023-04-03T20:49:14.835Z,99.99
2023-04-03T20:53:18.849Z,99.99
2023-04-03T20:57:20.900Z,99.99
2023-04-03T21:01:23.826Z,99.99
2023-04-03T21:05:30.378Z,99.99
2023-04-03T21:10:09.802Z,99.99
2023-04-03T21:14:49.422Z,99.99
2023-04-03T21:19:04.269Z,99.99
2023-04-03T21:23:06.221Z,99.99
2023-04-03T21:27:08.275Z,99.99
2023-04-03T21:31:11.641Z,99.99
2023-04-03T21:35:13.439Z,99.99
2023-04-03T21:39:15.517Z,99.99
2023-04-03T21:43:17.724Z,99.99
2023-04-03T21:47:19.562Z,99.99
2023-04-03T21:51:21.476Z,99.99
2023-04-03T21:55:23.502Z,99.99
2023-04-03T21:59:25.496Z,99.99
2023-04-03T22:03:27.208Z,99.99
2023-04-03T22:07:28.778Z,99.99
2023-04-03T22:11:30.490Z,99.99
2023-04-03T22:15:36.952Z,99.99
2023-04-03T22:19:39.097Z,99.99
2023-04-03T22:23:40.728Z,99.99
2023-04-03T22:27:42.341Z,99.99
2023-04-03T22:31:43.978Z,99.99
2023-04-03T22:35:49.444Z,99.99
2023-04-03T22:39:51.051Z,99.99
2023-04-03T22:43:52.600Z,99.99
2023-04-03T22:47:58.499Z,99.99
2023-04-03T22:52:00.401Z,99.99
2023-04-03T22:56:04.861Z,99.99
2023-04-03T23:00:07.141Z,99.99
2023-04-03T23:04:08.711Z,99.99
2023-04-03T23:08:10.308Z,99.99
2023-04-03T23:12:12.122Z,99.99
2023-04-03T23:16:13.753Z,99.99
2023-04-03T23:20:15.643Z,99.99
2023-04-03T23:24:17.226Z,99.99
2023-04-03T23:28:18.841Z,99.99
2023-04-03T23:32:20.394Z,99.99
2023-04-03T23:36:22.102Z,99.99
2023-04-03T23:40:23.646Z,99.99
2023-04-03T23:44:25.420Z,99.99
2023-04-03T23:48:26.967Z,99.99
2023-04-03T23:52:28.507Z,99.99
2023-04-03T23:56:31.424Z,99.99
